createdAt,value
2019-06-26T19:21:43.833Z,100624.23
2019-06-26T19:24:47.711Z,100626.45
2019-06-26T19:27:51.340Z,100635.66
2019-06-26T19:30:55.079Z,100634.48
2019-06-26T19:33:58.782Z,100635.98
2019-06-26T19:37:02.479Z,100638.14
2019-06-26T19:40:08.544Z,100647.64
2019-06-26T19:43:13.302Z,100653.75
2019-06-26T19:46:20.088Z,100658.00
2019-06-26T19:49:23.734Z,100665.87
2019-06-26T19:52:32.093Z,100665.45
2019-06-26T19:55:35.909Z,100672.16
2019-06-26T19:58:45.239Z,100678.72
2019-06-26T20:01:54.688Z,100681.80
2019-06-26T20:04:58.457Z,100686.52
2019-06-26T20:08:02.149Z,100690.32
2019-06-26T20:11:05.973Z,100688.09
2019-06-26T20:14:09.660Z,100690.98
2019-06-26T20:17:20.350Z,100688.69
2019-06-26T20:20:24.042Z,100697.04
2019-06-26T20:23:27.888Z,100702.89
2019-06-26T20:26:31.639Z,100709.98
2019-06-26T20:29:35.616Z,100706.34
2019-06-26T20:32:39.344Z,100701.20
2019-06-26T20:35:44.585Z,100713.31
2019-06-26T20:38:48.277Z,100721.60
2019-06-26T20:41:51.935Z,100723.53
2019-06-26T20:44:55.607Z,100725.86
2019-06-26T20:47:59.431Z,100726.28
2019-06-26T20:51:55.678Z,100730.05
2019-06-26T20:54:14.326Z,100736.84
2019-06-26T20:57:19.616Z,100746.89
2019-06-26T21:00:26.645Z,100751.90
2019-06-26T21:03:30.311Z,100762.09
2019-06-26T21:06:33.967Z,100755.49
2019-06-26T21:09:37.631Z,100753.67
2019-06-26T21:12:42.578Z,100763.06
2019-06-26T21:15:53.184Z,100761.67
2019-06-26T21:18:56.208Z,100768.39
2019-06-26T21:22:03.075Z,100762.88
2019-06-26T21:25:18.266Z,100763.81
2019-06-26T21:28:13.372Z,100771.14
2019-06-26T21:31:17.007Z,100771.23
2019-06-26T21:34:25.218Z,100780.19
2019-06-26T21:37:28.845Z,100780.44
2019-06-26T21:40:32.688Z,100778.23
2019-06-26T21:43:36.367Z,100785.02
2019-06-26T21:46:40.037Z,100788.34
2019-06-26T21:49:47.434Z,100796.50
2019-06-26T21:52:54.911Z,100798.88
2019-06-26T21:56:07.076Z,100799.68
2019-06-26T21:59:11.092Z,100802.09
2019-06-26T22:02:14.935Z,100803.48
2019-06-26T22:05:20.220Z,100810.44
2019-06-26T22:08:25.878Z,100810.33
2019-06-26T22:11:32.925Z,100814.05
2019-06-26T22:14:36.633Z,100814.46
2019-06-26T22:17:40.260Z,100818.65
2019-06-26T22:20:45.642Z,100820.05
2019-06-26T22:23:49.401Z,100820.67
2019-06-26T22:27:06.375Z,100827.43
2019-06-26T22:30:08.120Z,100826.62
2019-06-26T22:33:11.912Z,100829.25
2019-06-26T22:36:16.751Z,100838.25
2019-06-26T22:39:20.405Z,100839.12
2019-06-26T22:42:24.106Z,100838.79
2019-06-26T22:45:27.715Z,100838.88
2019-06-26T22:48:31.560Z,100844.20
2019-06-26T22:51:35.311Z,100847.95
2019-06-26T22:54:39.045Z,100854.69
2019-06-26T22:57:42.744Z,100854.75
2019-06-26T23:00:47.867Z,100856.75
2019-06-26T23:03:51.718Z,100855.89
2019-06-26T23:06:55.351Z,100857.64
2019-06-26T23:09:59.018Z,100858.17
2019-06-26T23:13:02.845Z,100855.13
2019-06-26T23:16:06.595Z,100864.94
2019-06-26T23:19:10.235Z,100873.11
2019-06-26T23:22:13.874Z,100871.95
2019-06-26T23:25:17.538Z,100875.05
2019-06-26T23:28:21.181Z,100871.44
2019-06-26T23:31:28.100Z,100877.31
2019-06-26T23:34:37.859Z,100886.78
2019-06-26T23:37:41.523Z,100885.41
2019-06-26T23:40:45.188Z,100895.68
2019-06-26T23:43:48.914Z,100894.86
2019-06-26T23:46:52.583Z,100898.48
2019-06-26T23:49:56.307Z,100901.81
2019-06-26T23:52:59.964Z,100901.01
2019-06-26T23:56:03.606Z,100901.83
2019-06-26T23:59:07.282Z,100897.09
